Time;durP1;ratioP1;P1;durP2;ratioP2;P2;SDS_P1;SDS_P2;PMS_P1;PMS_P2;Temp;Humidity;BMP_temperature;BMP_pressure;BME280_temperature;BME280_humidity;BME280_pressure;Samples;Min_cycle;Max_cycle;Signal;HPM_P1;HPM_P2
2023/07/15 00:01:31;;;;;;;15.10;9.47;;;18.50;99.90;;;;;;5035690;28;20140;-74
2023/07/15 00:03:57;;;;;;;13.00;9.77;;;18.50;99.90;;;;;;5035640;28;20287;-75
2023/07/15 00:06:24;;;;;;;13.15;9.98;;;18.60;99.90;;;;;;5036097;28;20045;-75
2023/07/15 00:08:54;;;;;;;12.65;10.02;;;18.50;99.90;;;;;;5035677;28;20045;-75
2023/07/15 00:11:30;;;;;;;14.60;10.52;;;18.50;99.90;;;;;;5053688;28;20045;-74
2023/07/15 00:13:58;;;;;;;14.77;9.63;;;18.50;99.90;;;;;;5035592;28;20417;-75
2023/07/15 00:16:25;;;;;;;15.98;10.30;;;18.40;99.90;;;;;;5053362;28;20568;-75
2023/07/15 00:18:51;;;;;;;15.75;10.13;;;18.40;99.90;;;;;;5035715;28;20090;-75
2023/07/15 00:21:22;;;;;;;15.13;9.82;;;18.50;99.90;;;;;;5053384;28;20120;-75
2023/07/15 00:23:55;;;;;;;11.90;9.02;;;18.50;99.90;;;;;;5053137;28;20041;-75
2023/07/15 00:26:22;;;;;;;11.82;9.18;;;18.50;99.90;;;;;;5035577;28;20124;-74
2023/07/15 00:28:50;;;;;;;15.18;9.05;;;18.50;99.90;;;;;;5035711;28;20090;-75
2023/07/15 00:31:18;;;;;;;15.18;9.23;;;18.50;99.90;;;;;;5035306;28;20442;-75
2023/07/15 00:33:44;;;;;;;12.02;8.48;;;18.50;99.90;;;;;;5053423;28;20045;-75
2023/07/15 00:36:12;;;;;;;12.55;8.93;;;18.50;99.90;;;;;;5035140;28;20049;-75
2023/07/15 00:38:42;;;;;;;13.25;8.43;;;18.50;99.90;;;;;;5035303;28;20130;-75
2023/07/15 00:41:27;;;;;;;12.00;9.02;;;18.50;99.90;;;;;;5053822;28;20484;-75
2023/07/15 00:43:58;;;;;;;13.70;8.57;;;18.50;99.90;;;;;;5035261;28;20045;-75
2023/07/15 00:46:28;;;;;;;13.63;8.50;;;18.50;99.90;;;;;;5035575;28;21312;-75
2023/07/15 00:49:25;;;;;;;14.23;8.48;;;18.50;99.90;;;;;;5035667;28;20044;-75
2023/07/15 00:52:02;;;;;;;12.73;8.50;;;18.50;99.90;;;;;;5053442;28;20445;-75
2023/07/15 00:54:37;;;;;;;10.70;7.88;;;18.60;99.90;;;;;;5035376;28;20049;-75
2023/07/15 00:57:11;;;;;;;15.02;8.43;;;18.60;99.90;;;;;;5139878;23;20049;-73
2023/07/15 00:59:41;;;;;;;12.20;7.75;;;18.60;99.90;;;;;;5034931;28;20400;-73
2023/07/15 01:02:18;;;;;;;11.20;8.95;;;18.60;99.90;;;;;;5035593;28;20041;-75
2023/07/15 01:04:47;;;;;;;9.52;7.22;;;18.60;99.90;;;;;;5051759;28;20092;-75
2023/07/15 01:07:18;;;;;;;13.18;7.90;;;18.70;99.90;;;;;;5035048;28;20077;-75
2023/07/15 01:09:44;;;;;;;10.45;7.30;;;18.70;99.90;;;;;;5034989;28;20041;-75
2023/07/15 01:12:19;;;;;;;9.70;7.50;;;18.70;99.90;;;;;;5035209;28;20151;-75
2023/07/15 01:14:56;;;;;;;11.50;8.00;;;18.70;99.90;;;;;;5035373;28;20086;-75
2023/07/15 01:17:48;;;;;;;15.73;7.93;;;18.80;99.90;;;;;;5035211;28;20136;-75
2023/07/15 01:20:34;;;;;;;11.88;7.15;;;18.80;99.90;;;;;;5035269;28;20052;-75
2023/07/15 01:23:10;;;;;;;12.52;7.05;;;18.80;99.90;;;;;;5034902;28;20060;-75
2023/07/15 01:25:36;;;;;;;11.13;6.95;;;18.80;99.90;;;;;;5052884;28;20056;-75
2023/07/15 01:28:40;;;;;;;14.65;7.30;;;18.80;99.90;;;;;;5035094;28;20045;-75
2023/07/15 01:31:13;;;;;;;10.85;7.45;;;18.80;99.90;;;;;;5032629;28;20053;-75
2023/07/15 01:33:53;;;;;;;11.93;7.40;;;18.90;99.90;;;;;;5035309;28;20040;-75
2023/07/15 01:36:33;;;;;;;9.38;7.20;;;18.90;99.90;;;;;;5051698;28;20053;-75
2023/07/15 01:38:58;;;;;;;11.43;7.20;;;18.80;99.90;;;;;;5056610;28;20088;-75
2023/07/15 01:41:33;;;;;;;10.25;7.00;;;18.80;99.90;;;;;;5038865;28;20125;-75
2023/07/15 01:44:04;;;;;;;13.25;7.30;;;18.80;99.90;;;;;;5038485;28;20068;-76
2023/07/15 01:49:53;;;;;;;12.30;6.93;;;19.00;99.90;;;;;;5032608;28;20052;-76
2023/07/15 01:53:16;;;;;;;11.13;6.45;;;18.90;99.90;;;;;;5038520;28;20049;-75
2023/07/15 01:56:19;;;;;;;11.18;6.20;;;19.00;99.90;;;;;;5030703;28;20045;-75
2023/07/15 01:59:41;;;;;;;9.02;6.30;;;19.00;99.90;;;;;;5051184;28;20053;-75
2023/07/15 02:02:20;;;;;;;11.38;5.85;;;19.00;99.90;;;;;;5033256;28;20056;-76
2023/07/15 02:05:17;;;;;;;;;;;;;;;;;;;;;
2023/07/15 02:08:12;;;;;;;9.20;5.38;;;19.10;99.90;;;;;;5038062;28;20091;-76
2023/07/15 02:11:08;;;;;;;8.77;6.45;;;19.10;99.90;;;;;;5037858;28;20041;-75
2023/07/15 02:17:49;;;;;;;8.35;5.57;;;19.10;99.90;;;;;;5038607;28;20048;-75
2023/07/15 02:23:50;;;;;;;7.88;5.28;;;19.10;99.90;;;;;;5037347;28;20044;-75
2023/07/15 02:33:57;;;;;;;9.45;5.88;;;19.10;99.90;;;;;;4938886;29;20399;-75
2023/07/15 02:36:36;;;;;;;9.27;5.55;;;19.10;99.90;;;;;;4939089;29;20047;-76
2023/07/15 02:46:44;;;;;;;10.68;5.03;;;19.00;99.90;;;;;;5012754;28;20046;-76
2023/07/15 02:52:45;;;;;;;11.40;6.32;;;19.10;99.90;;;;;;4954608;29;20118;-75
2023/07/15 02:59:14;;;;;;;12.02;5.43;;;19.00;99.90;;;;;;4909446;29;20082;-75
2023/07/15 03:01:54;;;;;;;8.05;5.05;;;19.00;99.90;;;;;;4957547;28;20084;-75
2023/07/15 03:05:15;;;;;;;9.15;5.57;;;19.00;99.90;;;;;;4957793;28;20403;-75
2023/07/15 03:11:11;;;;;;;8.32;4.82;;;19.00;99.90;;;;;;4945691;28;20051;-75
2023/07/15 03:13:49;;;;;;;10.02;4.43;;;19.10;99.90;;;;;;4968940;28;20097;-76
2023/07/15 03:16:49;;;;;;;8.70;5.07;;;19.10;99.90;;;;;;4975535;28;20424;-76
2023/07/15 03:30:50;;;;;;;;;;;;;;;;;;;;;
2023/07/15 03:34:19;;;;;;;6.53;4.45;;;19.30;99.90;;;;;;4966722;28;20425;-76
2023/07/15 03:37:40;;;;;;;8.05;5.13;;;19.30;99.90;;;;;;5002068;28;20576;-75
2023/07/15 03:41:09;;;;;;;;;;;;;;;;;;;;;
2023/07/15 03:47:50;;;;;;;9.00;4.78;;;19.30;99.90;;;;;;4934549;29;20107;-75
2023/07/15 03:50:42;;;;;;;8.25;5.20;;;19.30;99.90;;;;;;4932533;28;20153;-75
2023/07/15 03:53:20;;;;;;;7.78;4.60;;;19.20;99.90;;;;;;5047260;28;20051;-75
2023/07/15 03:56:57;;;;;;;8.85;5.00;;;19.20;99.90;;;;;;5052604;28;20114;-75
2023/07/15 04:00:49;;;;;;;;;;;;;;;;;;;;;
2023/07/15 04:07:51;;;;;;;9.80;4.85;;;19.30;99.90;;;;;;4980001;28;20093;-76
2023/07/15 04:11:49;;;;;;;;;;;;;;;;;;;;;
2023/07/15 04:23:01;;;;;;;;;;;;;;;;;;;;;
2023/07/15 04:25:49;;;;;;;13.02;5.10;;;19.40;99.90;;;;;;5053168;28;20036;-75
2023/07/15 04:33:23;;;;;;;;;;;;;;;;;;;;;
2023/07/15 04:40:21;;;;;;;12.00;5.47;;;19.60;99.90;;;;;;4943991;29;20058;-75
2023/07/15 04:58:32;;;;;;;;;;;;;;;;;;;;;
2023/07/15 05:02:34;;;;;;;11.32;5.38;;;20.00;99.90;;;;;;4933996;29;20161;-76
2023/07/15 05:17:20;;;;;;;9.60;4.82;;;20.00;99.90;;;;;;4788963;30;20051;-75
2023/07/15 05:29:26;;;;;;;7.93;5.05;;;20.40;99.90;;;;;;4660740;30;20069;-76
2023/07/15 05:43:33;;;;;;;9.45;4.68;;;20.80;99.90;;;;;;4840858;29;20061;-74
2023/07/15 05:47:14;;;;;;;8.73;5.15;;;21.00;99.90;;;;;;4837309;29;20534;-74
2023/07/15 06:06:05;;;;;;;8.80;5.82;;;21.50;99.90;;;;;;4824470;29;20071;-74
2023/07/15 06:30:04;;;;;;;7.96;5.44;;;22.50;99.90;;;;;;6218931;22;22071953;-75
2023/07/15 06:32:43;;;;;;;;;;;22.50;99.90;;;;;;6128545;23;20441;-75
2023/07/15 06:35:14;;;;;;;10.60;5.35;;;22.50;99.90;;;;;;6158846;23;19962;-74
2023/07/15 06:37:40;;;;;;;7.22;4.85;;;22.60;99.90;;;;;;6161790;23;20493;-74
2023/07/15 06:40:14;;;;;;;9.38;5.38;;;22.60;99.90;;;;;;6162010;23;20024;-75
2023/07/15 06:42:40;;;;;;;10.00;5.00;;;22.70;99.90;;;;;;6162445;23;20052;-75
2023/07/15 06:45:39;;;;;;;11.50;5.15;;;22.80;99.90;;;;;;6162476;23;20017;-75
2023/07/15 06:48:27;;;;;;;9.32;5.40;;;23.00;99.90;;;;;;6161944;23;20115;-75
2023/07/15 06:51:11;;;;;;;7.22;4.50;;;23.00;99.90;;;;;;6162148;23;20025;-75
2023/07/15 06:53:49;;;;;;;6.75;4.60;;;23.00;99.90;;;;;;6162801;23;20064;-75
2023/07/15 06:56:34;;;;;;;9.07;4.70;;;23.20;99.90;;;;;;6162226;23;20096;-75
2023/07/15 06:59:26;;;;;;;11.00;4.60;;;23.10;99.90;;;;;;6163902;23;20089;-75
2023/07/15 07:02:09;;;;;;;11.03;4.97;;;23.20;99.90;;;;;;6155707;23;20028;-75
2023/07/15 07:04:45;;;;;;;8.13;4.45;;;23.20;99.90;;;;;;6159557;23;20032;-74
2023/07/15 07:07:26;;;;;;;10.43;4.95;;;23.20;99.90;;;;;;6163935;23;20021;-74
2023/07/15 07:09:52;;;;;;;9.93;4.82;;;23.40;99.90;;;;;;6162511;23;20508;-74
2023/07/15 07:12:18;;;;;;;9.45;4.70;;;23.40;99.90;;;;;;6162357;23;20013;-75
2023/07/15 07:14:43;;;;;;;8.70;4.65;;;23.50;99.90;;;;;;6164249;23;20024;-75
2023/07/15 07:17:09;;;;;;;7.57;4.75;;;23.60;99.90;;;;;;6162332;23;20025;-74
2023/07/15 07:19:35;;;;;;;9.80;5.00;;;23.60;99.90;;;;;;6157298;23;20434;-74
2023/07/15 07:22:03;;;;;;;9.75;4.60;;;23.60;99.90;;;;;;6157225;23;20027;-74
2023/07/15 07:24:28;;;;;;;8.65;2.97;;;23.40;99.90;;;;;;6156131;23;20014;-74
2023/07/15 07:26:54;;;;;;;4.38;2.30;;;23.30;99.90;;;;;;6155650;23;20020;-75
2023/07/15 07:29:19;;;;;;;5.53;1.92;;;23.10;99.90;;;;;;6157454;23;20369;-76
2023/07/15 07:31:46;;;;;;;6.65;2.40;;;23.20;99.90;;;;;;6155507;23;20410;-74
2023/07/15 07:34:12;;;;;;;5.97;3.22;;;23.20;99.90;;;;;;6155625;23;20029;-75
2023/07/15 07:36:37;;;;;;;7.97;2.72;;;23.10;99.90;;;;;;6155325;23;20398;-75
2023/07/15 07:39:03;;;;;;;4.47;2.30;;;23.10;99.90;;;;;;6157287;23;20453;-75
2023/07/15 07:41:28;;;;;;;4.43;2.83;;;23.10;99.90;;;;;;6155491;23;20022;-75
2023/07/15 07:43:54;;;;;;;7.00;2.40;;;23.10;99.90;;;;;;6157061;23;20026;-76
2023/07/15 07:46:20;;;;;;;6.32;3.05;;;23.10;99.90;;;;;;6155305;23;20029;-75
2023/07/15 07:48:48;;;;;;;7.38;2.50;;;23.10;99.90;;;;;;6155443;23;20022;-78
2023/07/15 07:51:14;;;;;;;6.10;2.30;;;23.10;99.90;;;;;;6157186;23;20014;-75
2023/07/15 07:53:40;;;;;;;5.20;2.65;;;23.10;99.90;;;;;;6155776;23;20021;-74
2023/07/15 07:56:05;;;;;;;5.38;2.40;;;23.10;99.90;;;;;;6155504;23;20401;-74
2023/07/15 07:58:31;;;;;;;4.35;2.72;;;23.10;99.90;;;;;;6155270;23;20044;-74
2023/07/15 08:00:57;;;;;;;7.97;3.47;;;23.20;99.90;;;;;;6155379;23;20018;-75
2023/07/15 08:03:31;;;;;;;8.65;3.72;;;23.20;99.90;;;;;;6155366;23;20045;-75
2023/07/15 08:06:00;;;;;;;5.53;3.33;;;23.20;99.90;;;;;;6155370;23;20036;-75
2023/07/15 08:08:26;;;;;;;6.38;3.53;;;23.30;99.90;;;;;;6154979;23;20435;-75
2023/07/15 08:10:52;;;;;;;8.05;3.13;;;23.30;99.90;;;;;;6155168;23;20017;-75
2023/07/15 08:13:17;;;;;;;7.05;3.50;;;23.30;99.90;;;;;;6153437;23;20024;-75
2023/07/15 08:15:50;;;;;;;6.40;2.92;;;23.40;99.90;;;;;;6156661;23;20021;-75
2023/07/15 08:18:15;;;;;;;6.20;2.55;;;23.60;99.90;;;;;;6154762;23;20029;-75
2023/07/15 08:20:41;;;;;;;7.25;2.80;;;23.80;99.90;;;;;;6155067;23;20024;-76
2023/07/15 08:23:07;;;;;;;4.35;2.72;;;24.00;99.90;;;;;;6155045;23;20022;-75
2023/07/15 08:25:33;;;;;;;5.15;2.30;;;24.00;99.90;;;;;;6156658;23;20029;-75
2023/07/15 08:27:58;;;;;;;4.70;2.50;;;24.00;99.90;;;;;;6156330;23;20022;-75
2023/07/15 08:30:27;;;;;;;7.07;2.42;;;23.90;99.90;;;;;;6155962;23;20017;-75
2023/07/15 08:32:53;;;;;;;8.18;2.80;;;23.90;99.90;;;;;;6155838;23;20343;-75
2023/07/15 08:35:22;;;;;;;5.47;2.50;;;23.80;99.90;;;;;;6154769;23;20438;-75
2023/07/15 08:37:48;;;;;;;5.25;2.53;;;23.80;99.90;;;;;;6154773;23;20018;-75
2023/07/15 08:40:21;;;;;;;6.78;2.85;;;23.70;99.90;;;;;;6156740;23;20047;-75
2023/07/15 08:42:52;;;;;;;3.80;2.25;;;23.80;99.90;;;;;;6156389;23;20438;-75
2023/07/15 08:45:18;;;;;;;5.15;2.50;;;24.00;99.90;;;;;;6154736;23;20018;-75
2023/07/15 08:47:47;;;;;;;4.53;2.10;;;23.90;99.90;;;;;;6156159;23;20044;-75
2023/07/15 08:50:15;;;;;;;5.38;2.30;;;23.90;99.90;;;;;;6156445;23;20114;-75
2023/07/15 08:52:45;;;;;;;5.38;2.10;;;23.90;99.90;;;;;;6156766;23;20017;-75
2023/07/15 08:55:12;;;;;;;4.50;1.92;;;23.80;99.90;;;;;;6154759;23;20450;-75
2023/07/15 08:57:38;;;;;;;4.80;1.95;;;23.80;99.90;;;;;;6154604;23;20057;-75
2023/07/15 09:00:08;;;;;;;2.88;1.77;;;24.00;99.90;;;;;;6156613;23;20056;-76
2023/07/15 09:02:37;;;;;;;5.47;2.25;;;24.20;99.90;;;;;;6156547;23;20029;-75
2023/07/15 09:05:09;;;;;;;4.35;1.80;;;24.50;99.90;;;;;;6156294;23;20324;-75
2023/07/15 09:07:53;;;;;;;5.75;1.60;;;24.50;99.90;;;;;;6154358;23;20044;-75
2023/07/15 09:10:19;;;;;;;2.85;1.80;;;24.60;99.90;;;;;;6154611;23;20104;-75
2023/07/15 09:12:53;;;;;;;6.32;2.25;;;24.80;99.90;;;;;;6156457;23;20017;-75
2023/07/15 09:15:19;;;;;;;6.80;2.60;;;24.80;99.90;;;;;;6156672;23;20055;-75
2023/07/15 09:17:59;;;;;;;9.30;2.55;;;24.70;99.90;;;;;;6156027;23;20022;-75
2023/07/15 09:20:29;;;;;;;7.10;2.53;;;24.60;99.90;;;;;;6154939;23;20035;-75
2023/07/15 09:22:57;;;;;;;4.50;2.20;;;24.60;99.90;;;;;;6154394;23;20108;-75
2023/07/15 09:25:23;;;;;;;3.45;1.67;;;24.40;99.90;;;;;;6154499;23;20017;-76
2023/07/15 09:27:49;;;;;;;3.45;1.65;;;24.30;99.90;;;;;;6154343;23;20025;-75
2023/07/15 09:30:15;;;;;;;3.17;1.42;;;24.40;99.90;;;;;;6156109;23;20025;-74
2023/07/15 09:32:41;;;;;;;8.63;1.70;;;24.40;99.90;;;;;;6156097;23;20053;-73
2023/07/15 09:35:10;;;;;;;3.33;1.20;;;24.50;99.90;;;;;;6154306;23;20446;-74
2023/07/15 09:37:35;;;;;;;6.18;1.85;;;24.70;99.90;;;;;;6154305;23;20029;-74
2023/07/15 09:40:08;;;;;;;3.38;1.60;;;24.70;99.90;;;;;;6154355;23;20030;-74
2023/07/15 09:42:53;;;;;;;4.72;1.45;;;24.80;99.90;;;;;;6155978;23;20045;-73
2023/07/15 09:45:36;;;;;;;3.83;1.90;;;24.60;99.90;;;;;;6156223;23;20089;-74
2023/07/15 09:48:04;;;;;;;;;;;24.50;99.90;;;;;;6154582;23;20022;-72
2023/07/15 09:50:34;;;;;;;5.32;1.67;;;24.50;99.90;;;;;;6156198;23;19917;-71
2023/07/15 09:55:37;;;;;;;5.32;1.70;;;24.60;99.90;;;;;;6206754;22;20025;-71
2023/07/15 09:58:20;;;;;;;4.60;1.10;;;24.60;99.90;;;;;;6215873;23;20020;-72
2023/07/15 10:00:47;;;;;;;;;;;24.70;99.90;;;;;;6189568;23;20016;-72
2023/07/15 10:03:24;;;;;;;5.05;1.77;;;24.90;99.90;;;;;;6189127;23;19916;-72
2023/07/15 10:05:50;;;;;;;5.68;1.73;;;25.10;99.90;;;;;;6189149;23;20025;-80
2023/07/15 10:08:16;;;;;;;5.40;1.70;;;25.20;99.90;;;;;;6188617;23;20085;-83
2023/07/15 10:10:42;;;;;;;4.03;1.48;;;25.50;99.90;;;;;;6188852;23;20091;-73
2023/07/15 10:13:09;;;;;;;4.55;1.45;;;25.60;99.90;;;;;;6188809;23;20059;-73
2023/07/15 10:15:35;;;;;;;4.43;1.50;;;25.60;99.90;;;;;;6188920;23;20016;-73
2023/07/15 10:18:17;;;;;;;4.15;1.50;;;25.60;99.90;;;;;;6188952;23;20070;-73
2023/07/15 10:20:57;;;;;;;4.45;2.00;;;25.40;99.90;;;;;;6215895;23;20009;-73
2023/07/15 10:23:33;;;;;;;3.58;1.42;;;25.40;99.90;;;;;;6189199;23;20437;-72
2023/07/15 10:26:09;;;;;;;3.67;1.23;;;25.20;99.90;;;;;;6188933;23;20471;-72
2023/07/15 10:28:34;;;;;;;3.40;1.45;;;25.20;99.90;;;;;;6215712;23;20020;-73
2023/07/15 10:31:16;;;;;;;4.10;1.83;;;25.20;99.90;;;;;;6215634;23;20024;-71
2023/07/15 10:33:54;;;;;;;3.58;1.60;;;25.50;99.90;;;;;;6215552;23;20031;-73
2023/07/15 10:36:35;;;;;;;3.13;1.40;;;25.70;99.90;;;;;;6215356;23;20070;-72
2023/07/15 10:39:17;;;;;;;2.70;1.30;;;25.60;99.90;;;;;;6189300;23;20025;-72
2023/07/15 10:41:44;;;;;;;5.03;1.63;;;25.60;99.90;;;;;;6215840;23;20020;-72
2023/07/15 10:44:28;;;;;;;3.17;1.80;;;25.60;99.90;;;;;;6188875;23;20028;-72
2023/07/15 10:47:03;;;;;;;5.32;1.80;;;25.80;99.90;;;;;;6189123;23;20021;-73
2023/07/15 10:49:30;;;;;;;6.70;1.92;;;25.80;99.90;;;;;;6188780;23;20024;-72
2023/07/15 10:51:57;;;;;;;3.40;1.50;;;26.00;99.90;;;;;;6186998;23;20013;-73
2023/07/15 10:54:29;;;;;;;6.82;2.35;;;26.00;99.90;;;;;;6216043;23;20027;-72
2023/07/15 10:56:55;;;;;;;4.75;2.00;;;26.10;99.90;;;;;;6217250;23;20017;-74
2023/07/15 10:59:31;;;;;;;5.15;1.90;;;26.30;99.90;;;;;;6216985;23;20476;-72
2023/07/15 11:02:00;;;;;;;6.25;2.10;;;26.40;99.90;;;;;;6189542;23;20016;-72
2023/07/15 11:04:26;;;;;;;5.00;2.10;;;26.40;99.90;;;;;;6190555;23;20021;-71
2023/07/15 11:06:52;;;;;;;4.25;2.10;;;26.40;99.90;;;;;;6190209;23;20084;-74
2023/07/15 11:09:22;;;;;;;4.75;1.92;;;26.40;99.90;;;;;;6187625;23;20411;-75
2023/07/15 11:11:49;;;;;;;3.60;2.10;;;26.30;99.90;;;;;;6190610;23;20055;-73
2023/07/15 11:14:44;;;;;;;3.88;1.80;;;26.40;99.90;;;;;;6217478;23;20021;-73
2023/07/15 11:17:16;;;;;;;3.30;1.70;;;26.50;99.90;;;;;;6190493;23;20106;-74
2023/07/15 11:19:42;;;;;;;5.50;1.92;;;26.40;99.90;;;;;;6190503;23;20013;-73
2023/07/15 11:22:07;;;;;;;4.35;1.80;;;26.40;99.90;;;;;;6217345;23;20019;-75
2023/07/15 11:24:36;;;;;;;5.07;2.22;;;26.50;99.90;;;;;;6190440;23;20044;-75
2023/07/15 11:27:05;;;;;;;7.05;2.65;;;26.20;99.90;;;;;;6217306;23;20019;-75
2023/07/15 11:29:30;;;;;;;5.45;1.88;;;26.10;99.90;;;;;;6190400;23;20519;-74
2023/07/15 11:32:06;;;;;;;4.05;1.83;;;26.00;99.90;;;;;;6217468;23;20017;-74
2023/07/15 11:34:32;;;;;;;3.55;1.73;;;26.00;99.90;;;;;;6217332;23;20017;-75
2023/07/15 11:37:02;;;;;;;4.80;2.17;;;25.90;99.90;;;;;;6190287;23;20337;-74
2023/07/15 11:48:18;;;;;;;3.75;1.70;;;25.90;99.90;;;;;;6192547;22;20025;-74
2023/07/15 11:50:43;;;;;;;3.90;1.83;;;26.20;99.90;;;;;;6160769;23;20468;-74
2023/07/15 11:53:30;;;;;;;3.72;1.60;;;26.40;99.90;;;;;;6187323;23;20054;-75
2023/07/15 11:56:27;;;;;;;3.38;1.65;;;26.40;99.90;;;;;;6160552;23;20450;-74
2023/07/15 11:58:53;;;;;;;5.15;2.20;;;26.30;99.90;;;;;;6186860;23;20013;-74
2023/07/15 12:01:25;;;;;;;4.80;2.20;;;26.20;99.90;;;;;;6182559;23;20027;-75
2023/07/15 12:03:51;;;;;;;;;;;26.00;99.90;;;;;;6161316;23;20457;-74
2023/07/15 12:06:30;;;;;;;4.65;2.22;;;25.90;99.90;;;;;;6157074;23;19916;-75
2023/07/15 12:09:39;;;;;;;5.22;2.00;;;25.90;99.90;;;;;;6183885;23;20021;-75
2023/07/15 12:12:13;;;;;;;7.13;2.75;;;26.00;99.90;;;;;;6147400;23;20013;-74
2023/07/15 12:14:39;;;;;;;4.47;2.22;;;25.70;99.90;;;;;;6160371;23;20021;-74
2023/07/15 12:21:09;;;;;;;4.65;2.50;;;25.40;99.90;;;;;;6014246;23;20409;-76
2023/07/15 12:24:08;;;;;;;5.40;2.63;;;25.30;99.90;;;;;;6042904;23;20022;-76
2023/07/15 12:42:23;;;;;;;3.95;2.58;;;25.20;99.90;;;;;;6095554;23;20379;-76
2023/07/15 12:45:34;;;;;;;4.57;2.70;;;25.20;99.90;;;;;;6007616;23;20021;-76
2023/07/15 12:48:12;;;;;;;4.43;2.75;;;25.50;99.90;;;;;;6151451;23;20032;-76
2023/07/15 12:51:29;;;;;;;3.15;2.33;;;25.70;99.90;;;;;;6154651;23;20032;-75
2023/07/15 12:57:49;;;;;;;4.80;2.75;;;25.60;99.90;;;;;;6108137;23;20021;-76
2023/07/15 13:01:22;;;;;;;5.10;2.70;;;25.70;99.90;;;;;;6183790;23;20360;-76
2023/07/15 13:04:20;;;;;;;;;;;;;;;;;;;;;
2023/07/15 13:07:05;;;;;;;4.65;2.78;;;25.50;99.90;;;;;;6175788;23;20087;-76
2023/07/15 13:09:31;;;;;;;4.75;2.70;;;25.40;99.90;;;;;;6158202;23;20092;-75
2023/07/15 13:12:08;;;;;;;5.78;2.78;;;25.50;99.90;;;;;;6156858;23;20057;-75
2023/07/15 13:15:02;;;;;;;6.18;3.05;;;25.70;99.90;;;;;;6175599;23;20075;-76
2023/07/15 13:17:28;;;;;;;4.30;3.00;;;25.60;99.90;;;;;;6139053;23;20021;-75
2023/07/15 13:20:24;;;;;;;6.45;2.85;;;25.50;99.90;;;;;;6186303;23;20009;-75
2023/07/15 13:23:07;;;;;;;5.30;2.80;;;25.70;99.90;;;;;;6182628;23;20075;-75
2023/07/15 13:25:53;;;;;;;7.15;3.38;;;25.90;99.90;;;;;;6186197;23;20017;-76
2023/07/15 13:32:31;;;;;;;4.22;2.97;;;26.00;99.90;;;;;;6185509;23;20070;-74
2023/07/15 13:36:16;;;;;;;4.47;2.92;;;26.10;99.90;;;;;;6183725;23;20032;-75
2023/07/15 13:39:39;;;;;;;7.93;3.17;;;26.20;99.90;;;;;;6183824;23;20020;-75
2023/07/15 13:42:23;;;;;;;5.47;3.15;;;26.20;99.90;;;;;;6158428;23;20013;-75
2023/07/15 13:45:01;;;;;;;6.00;3.53;;;26.30;99.90;;;;;;6176793;23;20017;-74
2023/07/15 13:48:08;;;;;;;8.13;3.17;;;26.50;99.90;;;;;;6111542;23;20105;-75
2023/07/15 13:50:50;;;;;;;5.65;3.67;;;26.40;99.90;;;;;;6070409;23;20070;-75
2023/07/15 13:54:08;;;;;;;5.72;3.38;;;26.30;99.90;;;;;;5977587;23;20029;-75
2023/07/15 14:01:29;;;;;;;6.32;3.78;;;26.00;99.90;;;;;;5980690;24;20052;-75
2023/07/15 14:08:45;;;;;;;;;;;;;;;;;;;;;
2023/07/15 14:11:46;;;;;;;6.20;3.25;;;25.60;99.90;;;;;;5984589;23;20460;-76
2023/07/15 14:18:27;;;;;;;5.45;3.40;;;25.30;99.90;;;;;;5965380;23;20456;-76
2023/07/15 14:21:53;;;;;;;5.25;2.92;;;25.30;99.90;;;;;;6070486;23;20027;-76
2023/07/15 14:28:40;;;;;;;4.60;3.10;;;25.30;99.90;;;;;;6041180;23;20033;-76
2023/07/15 14:31:51;;;;;;;;;;;;;;;;;;;;;
2023/07/15 14:35:07;;;;;;;4.43;3.40;;;25.50;99.90;;;;;;5941141;24;20057;-76
2023/07/15 14:37:38;;;;;;;4.63;2.88;;;25.80;99.90;;;;;;5946955;24;20028;-76
2023/07/15 14:41:04;;;;;;;4.10;3.13;;;25.90;99.90;;;;;;5931223;24;20029;-76
2023/07/15 14:48:33;;;;;;;4.35;3.35;;;25.80;99.90;;;;;;5817765;24;20032;-76
2023/07/15 14:51:04;;;;;;;6.22;3.72;;;25.50;99.90;;;;;;5756691;24;20055;-75
2023/07/15 14:53:57;;;;;;;4.97;3.17;;;25.30;99.90;;;;;;5839959;24;20031;-76
2023/07/15 15:00:39;;;;;;;5.88;4.00;;;25.20;99.90;;;;;;5976996;23;20083;-76
2023/07/15 15:03:19;;;;;;;5.30;4.13;;;25.00;99.90;;;;;;6013215;23;20022;-75
2023/07/15 15:05:48;;;;;;;8.18;4.88;;;24.90;99.90;;;;;;6014819;23;20030;-75
2023/07/15 15:08:14;;;;;;;7.00;5.22;;;24.60;99.90;;;;;;6038467;23;20144;-75
2023/07/15 15:10:41;;;;;;;11.45;6.30;;;24.20;99.90;;;;;;6083473;23;20045;-75
2023/07/15 15:13:07;;;;;;;9.32;6.00;;;24.00;99.90;;;;;;6131571;23;20037;-75
2023/07/15 15:15:33;;;;;;;15.25;8.13;;;23.70;99.90;;;;;;6157337;23;20020;-76
2023/07/15 15:17:59;;;;;;;9.15;6.60;;;23.40;99.90;;;;;;6131412;23;20057;-90
2023/07/15 16:02:52;;;;;;;11.93;7.22;;;22.90;99.90;;;;;;6186250;23;20084;-75
2023/07/15 16:05:17;;;;;;;8.07;6.32;;;22.60;99.90;;;;;;6160074;23;20060;-75
2023/07/15 16:07:43;;;;;;;9.82;6.80;;;22.50;99.90;;;;;;6160190;23;20017;-75
2023/07/15 16:10:09;;;;;;;22.05;19.75;;;22.30;99.90;;;;;;6186407;23;20027;-75
2023/07/15 16:12:35;;;;;;;10.80;9.18;;;22.30;99.90;;;;;;6186451;23;20052;-74
2023/07/15 16:15:00;;;;;;;26.98;24.38;;;22.30;99.90;;;;;;6186268;23;20017;-74
2023/07/15 16:17:26;;;;;;;20.02;18.00;;;22.30;99.90;;;;;;6159976;23;20017;-74
2023/07/15 16:19:51;;;;;;;26.45;23.85;;;22.30;99.90;;;;;;6160046;23;20017;-74
2023/07/15 16:22:17;;;;;;;98.57;88.57;;;22.20;99.90;;;;;;6160192;23;20029;-76
2023/07/15 16:24:46;;;;;;;214.30;191.90;;;22.20;99.90;;;;;;6186604;23;20369;-78
2023/07/15 16:27:20;;;;;;;46.35;41.42;;;22.30;99.90;;;;;;6159830;23;20067;-80
2023/07/15 16:29:52;;;;;;;28.30;25.15;;;22.20;99.90;;;;;;6160309;23;20013;-79
2023/07/15 16:32:18;;;;;;;63.67;55.80;;;22.20;99.90;;;;;;6186054;23;20009;-80
2023/07/15 16:34:43;;;;;;;19.42;16.83;;;22.20;99.90;;;;;;6186601;23;20040;-78
2023/07/15 16:37:09;;;;;;;7.78;3.67;;;22.20;99.90;;;;;;6159830;23;20020;-78
2023/07/15 16:39:35;;;;;;;4.95;2.60;;;22.00;99.90;;;;;;6159809;23;20446;-78
2023/07/15 16:42:00;;;;;;;11.43;3.13;;;21.80;99.90;;;;;;6160260;23;20064;-73
2023/07/15 16:44:26;;;;;;;17.85;4.43;;;21.10;99.90;;;;;;6159543;23;20009;-77
2023/07/15 16:46:51;;;;;;;21.85;4.97;;;20.80;99.90;;;;;;6186068;23;20028;-76
2023/07/15 16:49:26;;;;;;;29.10;5.68;;;20.40;99.90;;;;;;6159748;23;20021;-76
2023/07/15 16:51:51;;;;;;;21.52;5.75;;;20.10;99.90;;;;;;6159144;23;20021;-75
2023/07/15 16:54:17;;;;;;;12.88;4.07;;;19.90;99.90;;;;;;6158955;23;20024;-74
2023/07/15 16:56:43;;;;;;;12.45;3.63;;;19.70;99.90;;;;;;6159375;23;20021;-75
2023/07/15 16:59:08;;;;;;;9.77;3.50;;;19.50;99.90;;;;;;6159543;23;20441;-75
2023/07/15 17:01:37;;;;;;;11.23;3.55;;;19.50;99.90;;;;;;6159153;23;20331;-75
2023/07/15 17:04:20;;;;;;;12.15;3.03;;;19.50;99.90;;;;;;6180976;23;20060;-75
2023/07/15 17:06:48;;;;;;;13.50;3.53;;;19.50;99.90;;;;;;6159231;23;20017;-76
2023/07/15 17:09:14;;;;;;;9.65;2.95;;;19.40;99.90;;;;;;6159415;23;20147;-75
2023/07/15 17:11:39;;;;;;;14.32;3.65;;;19.40;99.90;;;;;;6185359;23;20160;-75
2023/07/15 17:14:05;;;;;;;10.15;3.20;;;19.30;99.90;;;;;;6159431;23;20422;-76
2023/07/15 17:16:30;;;;;;;12.20;3.45;;;19.30;99.90;;;;;;6185637;23;20096;-75
2023/07/15 17:18:56;;;;;;;10.95;3.28;;;19.30;99.90;;;;;;6159307;23;20052;-75
2023/07/15 17:21:25;;;;;;;15.35;3.00;;;19.20;99.90;;;;;;6159455;23;20095;-75
2023/07/15 17:23:51;;;;;;;9.07;3.60;;;19.30;99.90;;;;;;6159121;23;20446;-75
2023/07/15 17:26:16;;;;;;;7.18;3.00;;;19.30;99.90;;;;;;6159242;23;20017;-77
2023/07/15 17:28:42;;;;;;;7.35;3.70;;;19.20;99.90;;;;;;6184527;23;20067;-76
2023/07/15 17:31:28;;;;;;;10.40;5.72;;;19.30;99.90;;;;;;6158890;23;20500;-75
